sensor_id;sensor_type;location;lat;lon;timestamp;temperature;humidity
39751;DHT22;37579;51.074;17.004;2023-11-22T00:00:56;23.60;60.90
39751;DHT22;37579;51.074;17.004;2023-11-22T00:03:21;23.60;60.90
39751;DHT22;37579;51.074;17.004;2023-11-22T00:05:50;23.60;60.90
39751;DHT22;37579;51.074;17.004;2023-11-22T00:08:16;23.60;61.00
39751;DHT22;37579;51.074;17.004;2023-11-22T00:10:43;23.60;60.90
39751;DHT22;37579;51.074;17.004;2023-11-22T00:13:10;23.60;60.90
39751;DHT22;37579;51.074;17.004;2023-11-22T00:15:37;23.60;60.90
39751;DHT22;37579;51.074;17.004;2023-11-22T00:18:03;23.50;60.90
39751;DHT22;37579;51.074;17.004;2023-11-22T00:20:30;23.50;60.90
39751;DHT22;37579;51.074;17.004;2023-11-22T00:22:56;23.60;60.90
39751;DHT22;37579;51.074;17.004;2023-11-22T00:25:22;23.60;60.90
39751;DHT22;37579;51.074;17.004;2023-11-22T00:27:48;23.50;60.90
39751;DHT22;37579;51.074;17.004;2023-11-22T00:30:14;23.50;61.00
39751;DHT22;37579;51.074;17.004;2023-11-22T00:32:40;23.50;61.00
39751;DHT22;37579;51.074;17.004;2023-11-22T00:35:07;23.50;61.00
39751;DHT22;37579;51.074;17.004;2023-11-22T00:37:33;23.50;61.00
39751;DHT22;37579;51.074;17.004;2023-11-22T00:40:02;23.50;61.10
39751;DHT22;37579;51.074;17.004;2023-11-22T00:42:36;23.40;61.10
39751;DHT22;37579;51.074;17.004;2023-11-22T00:45:04;23.40;61.20
39751;DHT22;37579;51.074;17.004;2023-11-22T00:47:32;23.40;61.20
39751;DHT22;37579;51.074;17.004;2023-11-22T00:49:58;23.40;61.30
39751;DHT22;37579;51.074;17.004;2023-11-22T00:52:24;23.40;61.30
39751;DHT22;37579;51.074;17.004;2023-11-22T00:54:50;23.40;61.30
39751;DHT22;37579;51.074;17.004;2023-11-22T00:57:16;23.40;61.20
39751;DHT22;37579;51.074;17.004;2023-11-22T00:59:42;23.40;61.20
39751;DHT22;37579;51.074;17.004;2023-11-22T01:02:09;23.40;61.20
39751;DHT22;37579;51.074;17.004;2023-11-22T01:04:35;23.40;61.20
39751;DHT22;37579;51.074;17.004;2023-11-22T01:07:02;23.40;61.10
39751;DHT22;37579;51.074;17.004;2023-11-22T01:09:30;23.40;61.10
39751;DHT22;37579;51.074;17.004;2023-11-22T01:11:57;23.40;61.20
39751;DHT22;37579;51.074;17.004;2023-11-22T01:14:23;23.40;61.10
39751;DHT22;37579;51.074;17.004;2023-11-22T01:16:49;23.40;61.20
39751;DHT22;37579;51.074;17.004;2023-11-22T01:19:15;23.40;61.10
39751;DHT22;37579;51.074;17.004;2023-11-22T01:21:41;23.40;61.70
39751;DHT22;37579;51.074;17.004;2023-11-22T01:24:07;23.40;61.10
39751;DHT22;37579;51.074;17.004;2023-11-22T01:26:33;23.40;61.00
39751;DHT22;37579;51.074;17.004;2023-11-22T01:28:59;23.40;61.00
39751;DHT22;37579;51.074;17.004;2023-11-22T01:31:25;23.40;61.10
39751;DHT22;37579;51.074;17.004;2023-11-22T01:33:53;23.30;61.20
39751;DHT22;37579;51.074;17.004;2023-11-22T01:36:19;23.40;61.10
39751;DHT22;37579;51.074;17.004;2023-11-22T01:38:45;23.30;61.10
39751;DHT22;37579;51.074;17.004;2023-11-22T01:41:13;23.30;61.10
39751;DHT22;37579;51.074;17.004;2023-11-22T01:43:39;23.30;61.00
39751;DHT22;37579;51.074;17.004;2023-11-22T01:46:07;23.30;61.00
39751;DHT22;37579;51.074;17.004;2023-11-22T01:48:34;23.30;61.00
39751;DHT22;37579;51.074;17.004;2023-11-22T01:51:02;23.30;61.00
39751;DHT22;37579;51.074;17.004;2023-11-22T01:53:28;23.30;61.10
39751;DHT22;37579;51.074;17.004;2023-11-22T01:55:55;23.30;61.00
39751;DHT22;37579;51.074;17.004;2023-11-22T01:58:22;23.30;60.90
39751;DHT22;37579;51.074;17.004;2023-11-22T02:00:51;23.30;61.00
39751;DHT22;37579;51.074;17.004;2023-11-22T02:03:18;23.30;60.90
39751;DHT22;37579;51.074;17.004;2023-11-22T02:05:45;23.30;60.90
39751;DHT22;37579;51.074;17.004;2023-11-22T02:08:11;23.30;60.90
39751;DHT22;37579;51.074;17.004;2023-11-22T02:10:38;23.30;60.80
39751;DHT22;37579;51.074;17.004;2023-11-22T02:13:05;23.40;60.80
39751;DHT22;37579;51.074;17.004;2023-11-22T02:15:34;23.30;60.70
39751;DHT22;37579;51.074;17.004;2023-11-22T02:18:00;23.40;60.80
39751;DHT22;37579;51.074;17.004;2023-11-22T02:20:25;23.40;60.70
39751;DHT22;37579;51.074;17.004;2023-11-22T02:22:52;23.40;60.80
39751;DHT22;37579;51.074;17.004;2023-11-22T02:25:19;23.40;60.70
39751;DHT22;37579;51.074;17.004;2023-11-22T02:27:45;23.40;60.70
39751;DHT22;37579;51.074;17.004;2023-11-22T02:30:11;23.40;60.60
39751;DHT22;37579;51.074;17.004;2023-11-22T02:32:37;23.30;60.60
39751;DHT22;37579;51.074;17.004;2023-11-22T02:35:05;23.40;60.70
39751;DHT22;37579;51.074;17.004;2023-11-22T02:37:34;23.40;60.60
39751;DHT22;37579;51.074;17.004;2023-11-22T02:42:26;23.40;60.60
39751;DHT22;37579;51.074;17.004;2023-11-22T02:44:53;23.40;60.60
39751;DHT22;37579;51.074;17.004;2023-11-22T02:47:18;23.30;60.60
39751;DHT22;37579;51.074;17.004;2023-11-22T02:49:44;23.30;60.50
39751;DHT22;37579;51.074;17.004;2023-11-22T02:52:10;23.30;60.50
39751;DHT22;37579;51.074;17.004;2023-11-22T02:54:37;23.30;60.50
39751;DHT22;37579;51.074;17.004;2023-11-22T02:57:03;23.30;60.50
39751;DHT22;37579;51.074;17.004;2023-11-22T02:59:29;23.30;60.50
39751;DHT22;37579;51.074;17.004;2023-11-22T03:01:55;23.30;60.60
39751;DHT22;37579;51.074;17.004;2023-11-22T03:04:22;23.30;60.40
39751;DHT22;37579;51.074;17.004;2023-11-22T03:06:47;23.30;60.50
39751;DHT22;37579;51.074;17.004;2023-11-22T03:09:13;23.30;60.50
39751;DHT22;37579;51.074;17.004;2023-11-22T03:11:40;23.30;60.40
39751;DHT22;37579;51.074;17.004;2023-11-22T03:14:06;23.30;60.30
39751;DHT22;37579;51.074;17.004;2023-11-22T03:16:33;23.30;60.50
39751;DHT22;37579;51.074;17.004;2023-11-22T03:18:59;23.30;60.40
39751;DHT22;37579;51.074;17.004;2023-11-22T03:21:24;23.30;60.40
39751;DHT22;37579;51.074;17.004;2023-11-22T03:23:53;23.30;60.50
39751;DHT22;37579;51.074;17.004;2023-11-22T03:26:20;23.20;60.30
39751;DHT22;37579;51.074;17.004;2023-11-22T03:28:46;23.30;60.40
39751;DHT22;37579;51.074;17.004;2023-11-22T03:31:13;23.30;60.30
39751;DHT22;37579;51.074;17.004;2023-11-22T03:33:40;23.20;60.30
39751;DHT22;37579;51.074;17.004;2023-11-22T03:36:06;23.20;60.30
39751;DHT22;37579;51.074;17.004;2023-11-22T03:38:32;23.20;60.30
39751;DHT22;37579;51.074;17.004;2023-11-22T03:40:58;23.20;60.30
39751;DHT22;37579;51.074;17.004;2023-11-22T03:43:25;23.20;60.30
39751;DHT22;37579;51.074;17.004;2023-11-22T03:45:52;23.20;61.00
39751;DHT22;37579;51.074;17.004;2023-11-22T03:48:18;23.20;60.40
39751;DHT22;37579;51.074;17.004;2023-11-22T03:50:43;23.20;60.40
39751;DHT22;37579;51.074;17.004;2023-11-22T03:53:09;23.20;60.40
39751;DHT22;37579;51.074;17.004;2023-11-22T03:55:35;23.20;60.40
39751;DHT22;37579;51.074;17.004;2023-11-22T03:58:01;23.20;60.40
39751;DHT22;37579;51.074;17.004;2023-11-22T04:00:26;23.20;60.40
39751;DHT22;37579;51.074;17.004;2023-11-22T04:02:52;23.20;60.50
39751;DHT22;37579;51.074;17.004;2023-11-22T04:05:19;23.20;60.40
39751;DHT22;37579;51.074;17.004;2023-11-22T04:07:45;23.20;60.30
39751;DHT22;37579;51.074;17.004;2023-11-22T04:10:11;23.20;60.40
39751;DHT22;37579;51.074;17.004;2023-11-22T04:12:37;23.20;60.30
39751;DHT22;37579;51.074;17.004;2023-11-22T04:15:04;23.20;60.30
39751;DHT22;37579;51.074;17.004;2023-11-22T04:17:30;23.20;60.40
39751;DHT22;37579;51.074;17.004;2023-11-22T04:19:55;23.20;60.20
39751;DHT22;37579;51.074;17.004;2023-11-22T04:22:21;23.20;60.30
39751;DHT22;37579;51.074;17.004;2023-11-22T04:24:47;23.20;60.20
39751;DHT22;37579;51.074;17.004;2023-11-22T04:27:12;23.20;60.20
39751;DHT22;37579;51.074;17.004;2023-11-22T04:29:38;23.20;60.20
39751;DHT22;37579;51.074;17.004;2023-11-22T04:32:05;23.20;60.30
39751;DHT22;37579;51.074;17.004;2023-11-22T04:34:30;23.10;60.20
39751;DHT22;37579;51.074;17.004;2023-11-22T04:36:56;23.20;60.20
39751;DHT22;37579;51.074;17.004;2023-11-22T04:39:22;23.20;60.10
39751;DHT22;37579;51.074;17.004;2023-11-22T04:41:48;23.20;60.20
39751;DHT22;37579;51.074;17.004;2023-11-22T04:44:13;23.10;60.30
39751;DHT22;37579;51.074;17.004;2023-11-22T04:46:39;23.10;60.20
39751;DHT22;37579;51.074;17.004;2023-11-22T04:49:05;23.10;60.10
39751;DHT22;37579;51.074;17.004;2023-11-22T04:51:30;23.10;60.10
39751;DHT22;37579;51.074;17.004;2023-11-22T04:53:57;23.10;60.10
39751;DHT22;37579;51.074;17.004;2023-11-22T04:56:23;23.10;60.20
39751;DHT22;37579;51.074;17.004;2023-11-22T04:58:49;23.10;60.10
39751;DHT22;37579;51.074;17.004;2023-11-22T05:01:14;23.10;60.10
39751;DHT22;37579;51.074;17.004;2023-11-22T05:03:40;23.10;60.00
39751;DHT22;37579;51.074;17.004;2023-11-22T05:06:06;23.10;60.00
39751;DHT22;37579;51.074;17.004;2023-11-22T05:08:32;23.10;60.10
39751;DHT22;37579;51.074;17.004;2023-11-22T05:10:58;23.10;60.20
39751;DHT22;37579;51.074;17.004;2023-11-22T05:13:24;23.10;60.10
39751;DHT22;37579;51.074;17.004;2023-11-22T05:15:50;23.00;60.20
39751;DHT22;37579;51.074;17.004;2023-11-22T05:18:16;23.10;60.20
39751;DHT22;37579;51.074;17.004;2023-11-22T05:20:41;23.10;60.10
39751;DHT22;37579;51.074;17.004;2023-11-22T05:23:07;23.20;60.00
39751;DHT22;37579;51.074;17.004;2023-11-22T05:25:33;23.30;59.80
39751;DHT22;37579;51.074;17.004;2023-11-22T05:27:58;23.40;59.60
39751;DHT22;37579;51.074;17.004;2023-11-22T05:30:24;23.40;59.50
39751;DHT22;37579;51.074;17.004;2023-11-22T05:32:50;23.50;59.40
39751;DHT22;37579;51.074;17.004;2023-11-22T05:35:17;23.50;59.30
39751;DHT22;37579;51.074;17.004;2023-11-22T05:37:42;23.50;59.30
39751;DHT22;37579;51.074;17.004;2023-11-22T05:40:08;23.50;59.50
39751;DHT22;37579;51.074;17.004;2023-11-22T05:42:35;23.60;59.70
39751;DHT22;37579;51.074;17.004;2023-11-22T05:45:01;23.60;59.70
39751;DHT22;37579;51.074;17.004;2023-11-22T05:47:29;23.60;59.50
39751;DHT22;37579;51.074;17.004;2023-11-22T05:49:54;23.70;59.40
39751;DHT22;37579;51.074;17.004;2023-11-22T05:52:20;23.70;59.30
39751;DHT22;37579;51.074;17.004;2023-11-22T05:54:49;23.70;59.40
39751;DHT22;37579;51.074;17.004;2023-11-22T05:57:14;23.70;59.30
39751;DHT22;37579;51.074;17.004;2023-11-22T05:59:41;23.70;59.40
39751;DHT22;37579;51.074;17.004;2023-11-22T06:02:06;23.70;59.40
39751;DHT22;37579;51.074;17.004;2023-11-22T06:04:32;23.70;59.50
39751;DHT22;37579;51.074;17.004;2023-11-22T06:06:58;23.80;59.60
39751;DHT22;37579;51.074;17.004;2023-11-22T06:09:24;23.80;59.50
39751;DHT22;37579;51.074;17.004;2023-11-22T06:11:49;23.80;59.50
39751;DHT22;37579;51.074;17.004;2023-11-22T06:14:15;23.80;59.40
39751;DHT22;37579;51.074;17.004;2023-11-22T06:16:41;23.90;59.30
39751;DHT22;37579;51.074;17.004;2023-11-22T06:19:07;23.80;59.90
39751;DHT22;37579;51.074;17.004;2023-11-22T06:21:32;23.80;59.10
39751;DHT22;37579;51.074;17.004;2023-11-22T06:23:59;23.80;59.20
39751;DHT22;37579;51.074;17.004;2023-11-22T06:26:25;23.70;59.70
39751;DHT22;37579;51.074;17.004;2023-11-22T06:28:51;23.80;59.10
39751;DHT22;37579;51.074;17.004;2023-11-22T06:31:16;23.70;59.00
39751;DHT22;37579;51.074;17.004;2023-11-22T06:33:42;23.80;59.00
39751;DHT22;37579;51.074;17.004;2023-11-22T06:36:08;23.80;58.90
39751;DHT22;37579;51.074;17.004;2023-11-22T06:38:37;23.80;58.80
39751;DHT22;37579;51.074;17.004;2023-11-22T06:41:02;23.80;58.80
39751;DHT22;37579;51.074;17.004;2023-11-22T06:43:28;23.80;58.70
39751;DHT22;37579;51.074;17.004;2023-11-22T06:45:54;23.90;58.60
39751;DHT22;37579;51.074;17.004;2023-11-22T06:48:19;23.90;58.40
39751;DHT22;37579;51.074;17.004;2023-11-22T06:50:45;23.90;58.50
39751;DHT22;37579;51.074;17.004;2023-11-22T06:53:11;23.90;58.40
39751;DHT22;37579;51.074;17.004;2023-11-22T06:55:37;23.90;58.40
39751;DHT22;37579;51.074;17.004;2023-11-22T06:58:04;23.90;58.40
39751;DHT22;37579;51.074;17.004;2023-11-22T07:00:31;23.80;58.60
39751;DHT22;37579;51.074;17.004;2023-11-22T07:02:58;23.80;58.80
39751;DHT22;37579;51.074;17.004;2023-11-22T07:05:24;23.70;58.70
39751;DHT22;37579;51.074;17.004;2023-11-22T07:07:49;23.70;58.80
39751;DHT22;37579;51.074;17.004;2023-11-22T07:10:15;23.70;58.90
39751;DHT22;37579;51.074;17.004;2023-11-22T07:12:41;23.60;58.90
39751;DHT22;37579;51.074;17.004;2023-11-22T07:15:09;23.60;58.90
39751;DHT22;37579;51.074;17.004;2023-11-22T07:17:35;23.60;59.10
39751;DHT22;37579;51.074;17.004;2023-11-22T07:20:02;23.60;59.00
39751;DHT22;37579;51.074;17.004;2023-11-22T07:22:28;23.60;59.20
39751;DHT22;37579;51.074;17.004;2023-11-22T07:24:55;23.60;59.20
39751;DHT22;37579;51.074;17.004;2023-11-22T07:27:25;23.50;59.50
39751;DHT22;37579;51.074;17.004;2023-11-22T07:29:51;23.50;59.70
39751;DHT22;37579;51.074;17.004;2023-11-22T07:32:18;23.60;59.90
39751;DHT22;37579;51.074;17.004;2023-11-22T07:34:45;23.50;59.80
39751;DHT22;37579;51.074;17.004;2023-11-22T07:37:12;23.50;59.90
39751;DHT22;37579;51.074;17.004;2023-11-22T07:39:38;23.50;60.40
39751;DHT22;37579;51.074;17.004;2023-11-22T07:42:05;23.50;60.60
39751;DHT22;37579;51.074;17.004;2023-11-22T07:44:35;23.50;60.70
39751;DHT22;37579;51.074;17.004;2023-11-22T07:47:03;23.60;60.60
39751;DHT22;37579;51.074;17.004;2023-11-22T07:49:33;23.60;60.50
39751;DHT22;37579;51.074;17.004;2023-11-22T07:52:03;23.60;60.40
39751;DHT22;37579;51.074;17.004;2023-11-22T07:54:29;23.60;60.40
39751;DHT22;37579;51.074;17.004;2023-11-22T07:56:55;23.60;60.40
39751;DHT22;37579;51.074;17.004;2023-11-22T07:59:21;23.60;60.30
39751;DHT22;37579;51.074;17.004;2023-11-22T08:01:48;23.70;60.40
39751;DHT22;37579;51.074;17.004;2023-11-22T08:04:14;23.70;60.40
39751;DHT22;37579;51.074;17.004;2023-11-22T08:06:42;23.60;60.30
39751;DHT22;37579;51.074;17.004;2023-11-22T08:09:08;23.60;60.50
39751;DHT22;37579;51.074;17.004;2023-11-22T08:11:36;23.70;60.80
39751;DHT22;37579;51.074;17.004;2023-11-22T08:14:02;23.60;60.90
39751;DHT22;37579;51.074;17.004;2023-11-22T08:16:28;23.70;61.10
39751;DHT22;37579;51.074;17.004;2023-11-22T08:18:54;23.70;61.30
39751;DHT22;37579;51.074;17.004;2023-11-22T08:21:22;23.70;61.40
39751;DHT22;37579;51.074;17.004;2023-11-22T08:23:48;23.70;61.40
39751;DHT22;37579;51.074;17.004;2023-11-22T08:26:14;23.70;61.50
39751;DHT22;37579;51.074;17.004;2023-11-22T08:28:40;23.70;61.50
39751;DHT22;37579;51.074;17.004;2023-11-22T08:31:06;23.70;61.80
39751;DHT22;37579;51.074;17.004;2023-11-22T08:33:39;23.70;61.70
39751;DHT22;37579;51.074;17.004;2023-11-22T08:36:08;23.60;61.60
39751;DHT22;37579;51.074;17.004;2023-11-22T08:38:35;23.60;61.70
39751;DHT22;37579;51.074;17.004;2023-11-22T08:41:02;23.60;61.60
39751;DHT22;37579;51.074;17.004;2023-11-22T08:43:28;23.60;61.70
39751;DHT22;37579;51.074;17.004;2023-11-22T08:45:54;23.60;61.70
39751;DHT22;37579;51.074;17.004;2023-11-22T08:48:20;23.60;61.70
39751;DHT22;37579;51.074;17.004;2023-11-22T08:50:46;23.60;61.50
39751;DHT22;37579;51.074;17.004;2023-11-22T08:53:13;23.60;61.60
39751;DHT22;37579;51.074;17.004;2023-11-22T08:55:39;23.60;61.40
39751;DHT22;37579;51.074;17.004;2023-11-22T08:58:05;23.60;61.30
39751;DHT22;37579;51.074;17.004;2023-11-22T09:00:31;23.60;61.20
39751;DHT22;37579;51.074;17.004;2023-11-22T09:02:58;23.70;61.10
39751;DHT22;37579;51.074;17.004;2023-11-22T09:05:24;23.70;61.00
39751;DHT22;37579;51.074;17.004;2023-11-22T09:07:50;23.80;61.00
39751;DHT22;37579;51.074;17.004;2023-11-22T09:10:17;23.80;60.90
39751;DHT22;37579;51.074;17.004;2023-11-22T09:12:44;23.70;60.80
39751;DHT22;37579;51.074;17.004;2023-11-22T09:15:11;23.80;60.80
39751;DHT22;37579;51.074;17.004;2023-11-22T09:17:38;23.80;61.10
39751;DHT22;37579;51.074;17.004;2023-11-22T09:20:10;23.80;61.10
39751;DHT22;37579;51.074;17.004;2023-11-22T09:22:46;23.80;61.10
39751;DHT22;37579;51.074;17.004;2023-11-22T09:27:43;23.80;61.20
39751;DHT22;37579;51.074;17.004;2023-11-22T09:30:13;23.90;61.20
39751;DHT22;37579;51.074;17.004;2023-11-22T09:32:45;23.90;61.30
39751;DHT22;37579;51.074;17.004;2023-11-22T09:35:14;23.80;61.30
39751;DHT22;37579;51.074;17.004;2023-11-22T09:37:41;23.80;61.30
39751;DHT22;37579;51.074;17.004;2023-11-22T09:40:12;23.80;61.20
39751;DHT22;37579;51.074;17.004;2023-11-22T09:42:46;23.80;61.20
39751;DHT22;37579;51.074;17.004;2023-11-22T09:45:17;23.80;61.10
39751;DHT22;37579;51.074;17.004;2023-11-22T09:47:47;23.80;61.20
39751;DHT22;37579;51.074;17.004;2023-11-22T09:53:05;23.80;61.20
39751;DHT22;37579;51.074;17.004;2023-11-22T09:55:35;23.70;61.00
39751;DHT22;37579;51.074;17.004;2023-11-22T09:58:03;23.70;61.70
39751;DHT22;37579;51.074;17.004;2023-11-22T10:00:29;23.70;61.10
39751;DHT22;37579;51.074;17.004;2023-11-22T10:02:57;23.70;60.90
39751;DHT22;37579;51.074;17.004;2023-11-22T10:05:24;23.70;60.90
39751;DHT22;37579;51.074;17.004;2023-11-22T10:07:49;23.70;60.90
39751;DHT22;37579;51.074;17.004;2023-11-22T10:10:15;23.70;60.90
39751;DHT22;37579;51.074;17.004;2023-11-22T10:12:44;23.70;61.00
39751;DHT22;37579;51.074;17.004;2023-11-22T10:15:14;23.60;61.20
39751;DHT22;37579;51.074;17.004;2023-11-22T10:17:40;23.70;60.90
39751;DHT22;37579;51.074;17.004;2023-11-22T10:20:07;23.70;60.80
39751;DHT22;37579;51.074;17.004;2023-11-22T10:22:46;23.60;60.60
39751;DHT22;37579;51.074;17.004;2023-11-22T10:25:15;23.60;60.70
39751;DHT22;37579;51.074;17.004;2023-11-22T10:27:47;23.60;60.60
39751;DHT22;37579;51.074;17.004;2023-11-22T10:30:13;23.60;60.60
39751;DHT22;37579;51.074;17.004;2023-11-22T10:32:42;23.60;60.60
39751;DHT22;37579;51.074;17.004;2023-11-22T10:35:08;23.60;60.60
39751;DHT22;37579;51.074;17.004;2023-11-22T10:37:35;23.60;60.50
39751;DHT22;37579;51.074;17.004;2023-11-22T10:40:02;23.60;60.40
39751;DHT22;37579;51.074;17.004;2023-11-22T10:42:29;23.60;60.50
39751;DHT22;37579;51.074;17.004;2023-11-22T10:44:56;23.60;60.50
39751;DHT22;37579;51.074;17.004;2023-11-22T10:47:26;23.60;60.50
39751;DHT22;37579;51.074;17.004;2023-11-22T10:49:55;23.60;60.50
39751;DHT22;37579;51.074;17.004;2023-11-22T10:52:26;23.50;60.40
39751;DHT22;37579;51.074;17.004;2023-11-22T10:55:02;23.50;60.40
39751;DHT22;37579;51.074;17.004;2023-11-22T10:57:45;23.50;60.50
39751;DHT22;37579;51.074;17.004;2023-11-22T11:00:15;23.50;60.60
39751;DHT22;37579;51.074;17.004;2023-11-22T11:02:45;23.40;60.70
39751;DHT22;37579;51.074;17.004;2023-11-22T11:05:16;23.50;60.70
39751;DHT22;37579;51.074;17.004;2023-11-22T11:07:54;23.50;60.60
39751;DHT22;37579;51.074;17.004;2023-11-22T11:10:21;23.50;60.50
39751;DHT22;37579;51.074;17.004;2023-11-22T11:12:48;23.50;60.50
39751;DHT22;37579;51.074;17.004;2023-11-22T11:15:14;23.50;60.40
39751;DHT22;37579;51.074;17.004;2023-11-22T11:17:43;23.50;60.40
39751;DHT22;37579;51.074;17.004;2023-11-22T11:20:10;23.50;60.40
39751;DHT22;37579;51.074;17.004;2023-11-22T11:22:39;23.50;60.40
39751;DHT22;37579;51.074;17.004;2023-11-22T11:25:05;23.50;60.40
39751;DHT22;37579;51.074;17.004;2023-11-22T11:27:34;23.50;60.30
39751;DHT22;37579;51.074;17.004;2023-11-22T11:32:57;23.50;60.20
39751;DHT22;37579;51.074;17.004;2023-11-22T11:35:52;23.50;60.20
39751;DHT22;37579;51.074;17.004;2023-11-22T11:38:30;23.50;60.20
39751;DHT22;37579;51.074;17.004;2023-11-22T11:40:56;23.50;60.20
39751;DHT22;37579;51.074;17.004;2023-11-22T11:43:45;23.50;60.20
39751;DHT22;37579;51.074;17.004;2023-11-22T11:46:15;23.50;60.20
39751;DHT22;37579;51.074;17.004;2023-11-22T11:48:44;23.50;60.10
39751;DHT22;37579;51.074;17.004;2023-11-22T11:51:14;23.50;60.10
39751;DHT22;37579;51.074;17.004;2023-11-22T11:53:40;23.50;60.10
39751;DHT22;37579;51.074;17.004;2023-11-22T11:56:07;23.50;60.20
39751;DHT22;37579;51.074;17.004;2023-11-22T11:58:33;23.50;60.10
39751;DHT22;37579;51.074;17.004;2023-11-22T12:00:59;23.50;60.10
39751;DHT22;37579;51.074;17.004;2023-11-22T12:03:25;23.50;60.10
39751;DHT22;37579;51.074;17.004;2023-11-22T12:05:50;23.50;60.10
39751;DHT22;37579;51.074;17.004;2023-11-22T12:08:17;23.50;60.10
39751;DHT22;37579;51.074;17.004;2023-11-22T12:10:43;23.50;60.00
39751;DHT22;37579;51.074;17.004;2023-11-22T12:13:09;23.40;60.70
39751;DHT22;37579;51.074;17.004;2023-11-22T12:15:35;23.50;60.00
39751;DHT22;37579;51.074;17.004;2023-11-22T12:18:01;23.50;60.00
39751;DHT22;37579;51.074;17.004;2023-11-22T12:20:27;23.50;59.90
39751;DHT22;37579;51.074;17.004;2023-11-22T12:23:00;23.40;59.90
39751;DHT22;37579;51.074;17.004;2023-11-22T12:25:27;23.50;59.90
39751;DHT22;37579;51.074;17.004;2023-11-22T12:27:54;23.50;59.90
39751;DHT22;37579;51.074;17.004;2023-11-22T12:32:55;23.50;59.80
39751;DHT22;37579;51.074;17.004;2023-11-22T12:35:22;23.50;59.80
39751;DHT22;37579;51.074;17.004;2023-11-22T12:37:49;23.50;59.90
39751;DHT22;37579;51.074;17.004;2023-11-22T12:40:15;23.50;59.90
39751;DHT22;37579;51.074;17.004;2023-11-22T12:42:50;23.40;59.90
39751;DHT22;37579;51.074;17.004;2023-11-22T12:45:23;23.40;60.00
39751;DHT22;37579;51.074;17.004;2023-11-22T12:47:53;23.50;60.00
39751;DHT22;37579;51.074;17.004;2023-11-22T12:50:35;23.50;60.20
39751;DHT22;37579;51.074;17.004;2023-11-22T12:53:15;23.50;60.20
39751;DHT22;37579;51.074;17.004;2023-11-22T12:55:42;23.50;60.20
39751;DHT22;37579;51.074;17.004;2023-11-22T12:58:16;23.50;60.20
39751;DHT22;37579;51.074;17.004;2023-11-22T13:00:44;23.50;60.30
39751;DHT22;37579;51.074;17.004;2023-11-22T13:03:10;23.50;60.50
39751;DHT22;37579;51.074;17.004;2023-11-22T13:05:39;23.50;60.60
39751;DHT22;37579;51.074;17.004;2023-11-22T13:08:10;23.50;60.70
39751;DHT22;37579;51.074;17.004;2023-11-22T13:13:05;23.50;60.60
39751;DHT22;37579;51.074;17.004;2023-11-22T13:15:34;23.50;60.20
39751;DHT22;37579;51.074;17.004;2023-11-22T13:18:00;23.60;60.10
39751;DHT22;37579;51.074;17.004;2023-11-22T13:20:26;23.60;60.00
39751;DHT22;37579;51.074;17.004;2023-11-22T13:22:53;23.60;59.90
39751;DHT22;37579;51.074;17.004;2023-11-22T13:25:20;23.60;59.90
39751;DHT22;37579;51.074;17.004;2023-11-22T13:27:47;23.60;59.80
39751;DHT22;37579;51.074;17.004;2023-11-22T13:30:14;23.60;59.80
39751;DHT22;37579;51.074;17.004;2023-11-22T13:32:40;23.60;59.70
39751;DHT22;37579;51.074;17.004;2023-11-22T13:35:09;23.60;59.70
39751;DHT22;37579;51.074;17.004;2023-11-22T13:37:47;23.50;59.70
39751;DHT22;37579;51.074;17.004;2023-11-22T13:40:18;23.50;59.70
39751;DHT22;37579;51.074;17.004;2023-11-22T13:42:51;23.50;59.70
39751;DHT22;37579;51.074;17.004;2023-11-22T13:45:20;23.50;59.70
39751;DHT22;37579;51.074;17.004;2023-11-22T13:47:47;23.50;59.70
39751;DHT22;37579;51.074;17.004;2023-11-22T13:50:15;23.50;59.60
39751;DHT22;37579;51.074;17.004;2023-11-22T13:52:50;23.50;59.50
39751;DHT22;37579;51.074;17.004;2023-11-22T13:55:17;23.50;59.50
39751;DHT22;37579;51.074;17.004;2023-11-22T13:57:54;23.50;59.40
39751;DHT22;37579;51.074;17.004;2023-11-22T14:00:22;23.50;59.50
39751;DHT22;37579;51.074;17.004;2023-11-22T14:02:49;23.50;59.60
39751;DHT22;37579;51.074;17.004;2023-11-22T14:05:18;23.50;59.50
39751;DHT22;37579;51.074;17.004;2023-11-22T14:07:44;23.50;59.60
39751;DHT22;37579;51.074;17.004;2023-11-22T14:10:11;23.50;59.60
39751;DHT22;37579;51.074;17.004;2023-11-22T14:12:37;23.50;59.80
39751;DHT22;37579;51.074;17.004;2023-11-22T14:15:04;23.50;59.80
39751;DHT22;37579;51.074;17.004;2023-11-22T14:17:30;23.50;59.80
39751;DHT22;37579;51.074;17.004;2023-11-22T14:19:56;23.50;59.80
39751;DHT22;37579;51.074;17.004;2023-11-22T14:22:22;23.50;59.90
39751;DHT22;37579;51.074;17.004;2023-11-22T14:24:50;23.50;60.00
39751;DHT22;37579;51.074;17.004;2023-11-22T14:27:19;23.60;60.00
39751;DHT22;37579;51.074;17.004;2023-11-22T14:29:46;23.60;59.90
39751;DHT22;37579;51.074;17.004;2023-11-22T14:32:16;23.60;59.70
39751;DHT22;37579;51.074;17.004;2023-11-22T14:34:42;23.70;59.70
39751;DHT22;37579;51.074;17.004;2023-11-22T14:37:11;23.70;59.90
39751;DHT22;37579;51.074;17.004;2023-11-22T14:39:38;23.70;59.80
39751;DHT22;37579;51.074;17.004;2023-11-22T14:42:05;23.70;59.90
39751;DHT22;37579;51.074;17.004;2023-11-22T14:44:34;23.70;59.30
39751;DHT22;37579;51.074;17.004;2023-11-22T14:47:01;23.70;59.10
39751;DHT22;37579;51.074;17.004;2023-11-22T14:49:41;23.80;59.00
39751;DHT22;37579;51.074;17.004;2023-11-22T14:52:07;23.80;58.90
39751;DHT22;37579;51.074;17.004;2023-11-22T14:54:36;23.80;58.70
39751;DHT22;37579;51.074;17.004;2023-11-22T14:57:02;23.80;58.50
39751;DHT22;37579;51.074;17.004;2023-11-22T14:59:28;23.80;58.40
39751;DHT22;37579;51.074;17.004;2023-11-22T15:01:56;23.80;58.40
39751;DHT22;37579;51.074;17.004;2023-11-22T15:04:23;23.80;58.30
39751;DHT22;37579;51.074;17.004;2023-11-22T15:06:49;23.80;58.30
39751;DHT22;37579;51.074;17.004;2023-11-22T15:09:16;23.80;58.40
39751;DHT22;37579;51.074;17.004;2023-11-22T15:11:42;23.80;58.30
39751;DHT22;37579;51.074;17.004;2023-11-22T15:14:09;23.80;58.40
39751;DHT22;37579;51.074;17.004;2023-11-22T15:16:34;23.80;58.00
39751;DHT22;37579;51.074;17.004;2023-11-22T15:19:02;23.70;58.20
39751;DHT22;37579;51.074;17.004;2023-11-22T15:21:31;23.70;58.00
39751;DHT22;37579;51.074;17.004;2023-11-22T15:23:57;23.70;58.00
39751;DHT22;37579;51.074;17.004;2023-11-22T15:26:22;23.70;57.90
39751;DHT22;37579;51.074;17.004;2023-11-22T15:28:48;23.70;57.90
39751;DHT22;37579;51.074;17.004;2023-11-22T15:31:16;23.70;58.60